Time;durP1;ratioP1;P1;durP2;ratioP2;P2;SDS_P1;SDS_P2;PMS_P1;PMS_P2;Temp;Humidity;BMP_temperature;BMP_pressure;BME280_temperature;BME280_humidity;BME280_pressure;Samples;Min_cycle;Max_cycle;Signal;HPM_P1;HPM_P2
2021/06/18 00:00:17;;;;;;;5.37;1.72;;;;;;;20.64;61.15;100182.69;1699207;83;21101;-80
2021/06/18 00:02:46;;;;;;;5.00;1.90;;;;;;;20.63;60.91;100181.03;1702826;83;21112;-80
2021/06/18 00:05:13;;;;;;;4.45;1.67;;;;;;;20.60;60.55;100184.44;1728685;83;21089;-74
2021/06/18 00:07:43;;;;;;;5.22;1.70;;;;;;;20.58;60.73;100188.94;1700497;83;21763;-76
2021/06/18 00:10:12;;;;;;;6.17;1.80;;;;;;;20.55;60.36;100192.34;1671746;84;21525;-77
2021/06/18 00:12:42;;;;;;;5.10;1.50;;;;;;;20.53;60.06;100193.23;1730270;82;21791;-79
2021/06/18 00:15:12;;;;;;;3.75;1.72;;;;;;;20.50;59.74;100191.08;1731142;80;21100;-80
2021/06/18 00:17:40;;;;;;;6.78;1.62;;;;;;;20.48;60.38;100194.75;1730457;82;21076;-78
2021/06/18 00:20:09;;;;;;;3.40;1.70;;;;;;;20.46;59.67;100190.08;1718575;80;22874;-73
2021/06/18 00:22:38;;;;;;;6.78;1.70;;;;;;;20.46;59.67;100194.81;1725713;82;21083;-73
2021/06/18 00:25:11;;;;;;;4.80;2.00;;;;;;;20.46;59.78;100187.86;1700604;81;21122;-79
2021/06/18 00:27:39;;;;;;;8.35;1.45;;;;;;;20.43;59.57;100182.36;1725213;83;21127;-74
2021/06/18 00:30:08;;;;;;;4.85;1.47;;;;;;;20.42;59.78;100191.00;1746763;82;21065;-78
2021/06/18 00:32:38;;;;;;;6.17;1.70;;;;;;;20.38;59.57;100188.05;1736605;80;21136;-78
2021/06/18 00:35:07;;;;;;;7.10;2.10;;;;;;;20.38;59.57;100185.27;1748520;82;21057;-77
2021/06/18 00:37:35;;;;;;;6.22;1.62;;;;;;;20.36;59.81;100184.77;1754139;80;21619;-75
2021/06/18 00:40:06;;;;;;;3.87;1.50;;;;;;;20.37;59.62;100186.39;1742561;80;21178;-76
2021/06/18 00:42:34;;;;;;;4.83;1.57;;;;;;;20.36;59.60;100190.89;1740168;80;21080;-77
2021/06/18 00:45:01;;;;;;;4.60;1.70;;;;;;;20.35;59.63;100177.55;1727961;82;21164;-77
2021/06/18 00:47:30;;;;;;;6.00;1.50;;;;;;;20.34;59.84;100181.45;1760044;80;21088;-78
2021/06/18 00:49:58;;;;;;;4.20;1.40;;;;;;;20.33;59.64;100179.83;1732273;83;21560;-77
2021/06/18 00:52:26;;;;;;;4.37;1.45;;;;;;;20.32;59.81;100178.17;1757740;80;21111;-78
2021/06/18 00:54:54;;;;;;;3.40;1.60;;;;;;;20.31;60.20;100179.89;1749707;80;21092;-79
2021/06/18 00:57:22;;;;;;;5.92;1.65;;;;;;;20.27;60.07;100185.25;1742823;80;21481;-80
2021/06/18 00:59:50;;;;;;;6.40;1.70;;;;;;;20.23;60.33;100182.86;1703716;83;21212;-78
2021/06/18 01:02:18;;;;;;;4.80;1.50;;;;;;;20.21;60.37;100187.88;1710665;83;21133;-79
2021/06/18 01:04:46;;;;;;;5.95;1.52;;;;;;;20.19;60.53;100193.73;1722901;83;21101;-80
2021/06/18 01:07:20;;;;;;;4.70;1.40;;;;;;;20.17;60.71;100192.41;1738655;80;21112;-79
2021/06/18 01:10:14;;;;;;;3.42;1.40;;;;;;;20.13;60.83;100194.17;1734818;80;21104;-80
2021/06/18 01:13:10;;;;;;;4.35;1.70;;;;;;;20.07;61.23;100192.63;1742162;80;21223;-75
2021/06/18 01:16:07;;;;;;;5.40;1.47;;;;;;;20.01;61.18;100196.69;1747419;82;21602;-73
2021/06/18 01:18:43;;;;;;;4.58;1.62;;;;;;;19.98;61.30;100197.30;1733599;80;21540;-76
2021/06/18 01:21:26;;;;;;;4.25;1.72;;;;;;;19.95;61.26;100199.31;1758338;80;21443;-79
2021/06/18 01:24:20;;;;;;;5.37;1.45;;;;;;;19.91;61.56;100199.69;1699144;83;21211;-75
2021/06/18 01:27:02;;;;;;;4.95;1.80;;;;;;;19.85;61.61;100196.75;1741241;80;21017;-75
2021/06/18 01:29:41;;;;;;;3.45;1.45;;;;;;;19.81;62.00;100207.66;1734548;80;21076;-75
2021/06/18 01:32:09;;;;;;;4.35;1.50;;;;;;;19.78;62.07;100203.30;1724814;82;21619;-75
2021/06/18 01:34:38;;;;;;;4.47;1.60;;;;;;;19.71;61.95;100201.52;1744052;80;21599;-74
2021/06/18 01:37:15;;;;;;;5.72;1.65;;;;;;;19.69;62.20;100206.53;1721877;80;21111;-75
2021/06/18 01:39:45;;;;;;;5.90;2.00;;;;;;;19.68;62.15;100203.52;1736383;80;21093;-79
2021/06/18 01:42:13;;;;;;;3.00;1.52;;;;;;;19.68;62.00;100210.46;1746928;80;21112;-78
2021/06/18 01:44:42;;;;;;;6.12;1.65;;;;;;;19.68;62.10;100216.02;1737044;80;21636;-76
2021/06/18 01:47:11;;;;;;;3.33;1.52;;;;;;;19.68;62.36;100220.19;1716756;83;21115;-76
2021/06/18 01:49:40;;;;;;;6.35;1.70;;;;;;;19.65;62.42;100231.34;1719797;82;21484;-75
2021/06/18 01:52:09;;;;;;;3.98;1.55;;;;;;;19.63;62.89;100238.58;1733685;80;21172;-76
2021/06/18 01:54:38;;;;;;;5.87;1.52;;;;;;;19.60;62.78;100230.05;1769578;80;21069;-75
2021/06/18 01:57:06;;;;;;;5.05;1.40;;;;;;;19.59;62.97;100232.00;1747435;80;21111;-76
2021/06/18 01:59:36;;;;;;;5.33;1.45;;;;;;;19.58;62.94;100231.73;1695558;83;21079;-75
2021/06/18 02:02:06;;;;;;;7.37;1.60;;;;;;;19.58;63.21;100234.52;1736710;80;21128;-79
2021/06/18 02:04:36;;;;;;;6.92;1.80;;;;;;;19.57;62.97;100238.44;1753057;80;21370;-75
2021/06/18 02:07:05;;;;;;;4.87;1.67;;;;;;;19.56;62.83;100238.73;1737721;80;21121;-78
2021/06/18 02:09:33;;;;;;;3.58;1.52;;;;;;;19.56;62.77;100240.95;1746431;80;21332;-78
2021/06/18 02:12:02;;;;;;;6.75;1.50;;;;;;;19.54;63.30;100245.98;1736185;80;21279;-76
2021/06/18 02:14:30;;;;;;;;;;;;;;;19.55;62.86;100244.04;1744482;80;21437;-80
2021/06/18 02:17:02;;;;;;;3.87;1.30;;;;;;;19.54;63.18;100243.22;1750136;80;20654;-77
2021/06/18 02:19:31;;;;;;;5.92;1.62;;;;;;;19.52;63.05;100248.81;1741327;80;21059;-81
2021/06/18 02:21:59;;;;;;;2.87;1.45;;;;;;;19.49;63.40;100257.20;1714850;82;21095;-83
2021/06/18 02:24:28;;;;;;;;;;;;;;;19.49;63.12;100260.53;1711261;83;21471;-82
2021/06/18 02:26:56;;;;;;;5.30;1.65;;;;;;;19.46;63.61;100260.58;1730768;80;20223;-81
2021/06/18 02:29:25;;;;;;;;;;;;;;;19.43;63.77;100254.25;1727820;82;21688;-81
2021/06/18 02:31:53;;;;;;;5.95;1.62;;;;;;;19.44;63.42;100253.69;1731804;80;20491;-80
2021/06/18 02:34:21;;;;;;;6.75;1.85;;;;;;;19.40;63.59;100257.66;1735503;80;21187;-78
2021/06/18 02:36:48;;;;;;;5.40;1.50;;;;;;;19.39;63.56;100264.33;1730866;82;21079;-80
2021/06/18 02:39:16;;;;;;;7.42;1.45;;;;;;;19.37;63.56;100256.05;1742342;80;21010;-74
2021/06/18 02:41:45;;;;;;;5.12;1.50;;;;;;;19.36;63.90;100259.35;1704747;82;21098;-75
2021/06/18 02:44:14;;;;;;;6.67;1.40;;;;;;;19.36;64.11;100261.30;1727872;80;21059;-76
2021/06/18 02:46:56;;;;;;;3.42;1.55;;;;;;;19.35;64.05;100261.89;1730322;82;21112;-75
2021/06/18 02:49:35;;;;;;;7.87;1.90;;;;;;;19.35;63.78;100261.06;1725886;80;21041;-75
2021/06/18 02:52:07;;;;;;;5.20;1.50;;;;;;;19.34;63.94;100251.91;1731109;80;21136;-74
2021/06/18 02:54:50;;;;;;;7.87;2.08;;;;;;;19.33;64.49;100264.13;1740259;80;21163;-72
2021/06/18 02:57:22;;;;;;;10.25;1.85;;;;;;;19.33;63.91;100255.80;1737427;80;21163;-79
2021/06/18 03:00:04;;;;;;;5.70;1.50;;;;;;;19.31;63.60;100253.90;1733203;80;21001;-79
2021/06/18 03:02:36;;;;;;;7.22;1.47;;;;;;;19.32;63.84;100256.12;1744371;82;21100;-78
2021/06/18 03:05:07;;;;;;;4.62;1.45;;;;;;;19.31;64.06;100262.78;1733932;82;21085;-74
2021/06/18 03:07:35;;;;;;;5.20;1.70;;;;;;;19.29;63.85;100251.17;1741703;80;21489;-73
2021/06/18 03:10:06;;;;;;;4.85;1.50;;;;;;;19.29;64.32;100261.72;1698468;82;21498;-76
2021/06/18 03:12:37;;;;;;;4.80;1.47;;;;;;;19.29;64.08;100260.33;1737462;80;21274;-77
2021/06/18 03:15:08;;;;;;;4.33;1.52;;;;;;;19.27;64.54;100262.59;1742483;80;21537;-74
2021/06/18 03:17:38;;;;;;;4.85;1.60;;;;;;;19.25;64.06;100263.44;1733630;82;21103;-74
2021/06/18 03:20:09;;;;;;;4.55;1.40;;;;;;;19.26;64.26;100264.27;1724245;80;21534;-76
2021/06/18 03:22:38;;;;;;;2.62;1.40;;;;;;;19.24;64.27;100263.20;1744772;82;21098;-74
2021/06/18 03:25:06;;;;;;;4.72;1.67;;;;;;;19.25;64.33;100255.70;1720518;80;21036;-73
2021/06/18 03:27:36;;;;;;;5.60;1.60;;;;;;;19.23;64.39;100258.77;1734835;80;21115;-75
2021/06/18 03:30:06;;;;;;;4.35;1.72;;;;;;;19.23;63.86;100261.53;1723526;82;21006;-78
2021/06/18 03:32:38;;;;;;;9.85;1.70;;;;;;;19.26;64.11;100262.88;1736139;80;21091;-76
2021/06/18 03:35:07;;;;;;;5.58;1.67;;;;;;;19.27;64.51;100261.76;1693380;83;21076;-75
2021/06/18 03:37:38;;;;;;;6.12;1.50;;;;;;;19.29;64.99;100270.04;1729178;80;21107;-77
2021/06/18 03:40:07;;;;;;;6.67;1.60;;;;;;;19.29;64.71;100262.27;1722697;83;21210;-75
2021/06/18 03:42:36;;;;;;;6.30;1.52;;;;;;;19.26;64.56;100273.42;1724682;80;21566;-74
2021/06/18 03:45:06;;;;;;;6.33;1.50;;;;;;;19.25;65.29;100275.13;1698897;82;21032;-75
2021/06/18 03:47:34;;;;;;;3.00;1.60;;;;;;;19.25;64.89;100271.77;1733438;80;21089;-75
2021/06/18 03:50:03;;;;;;;5.00;1.67;;;;;;;19.25;64.71;100275.92;1739558;82;21547;-75
2021/06/18 03:52:31;;;;;;;5.83;1.82;;;;;;;19.30;64.89;100278.61;1733501;80;21118;-75
2021/06/18 03:55:00;;;;;;;5.53;1.65;;;;;;;19.35;64.99;100268.00;1730893;82;21156;-77
2021/06/18 03:57:28;;;;;;;4.37;1.55;;;;;;;19.41;65.15;100277.33;1739615;80;21166;-73
2021/06/18 03:59:56;;;;;;;3.47;1.47;;;;;;;19.47;64.35;100281.67;1725206;82;21045;-77
2021/06/18 04:02:24;;;;;;;4.78;1.47;;;;;;;19.50;64.83;100278.29;1732307;80;21157;-77
2021/06/18 04:04:52;;;;;;;3.52;1.72;;;;;;;19.54;63.96;100274.31;1732256;82;21094;-73
2021/06/18 04:07:21;;;;;;;4.75;2.00;;;;;;;19.58;64.60;100287.27;1744814;80;21121;-77
2021/06/18 04:09:49;;;;;;;7.60;1.98;;;;;;;19.61;63.81;100279.72;1725782;80;21035;-73
2021/06/18 04:12:16;;;;;;;6.87;1.77;;;;;;;19.67;63.66;100299.05;1745363;82;21116;-73
2021/06/18 04:14:45;;;;;;;6.25;1.75;;;;;;;19.74;63.70;100298.91;1725872;80;21029;-74
2021/06/18 04:17:13;;;;;;;2.87;1.40;;;;;;;19.80;63.80;100299.08;1732151;82;21092;-73
2021/06/18 04:19:42;;;;;;;5.47;1.70;;;;;;;19.85;63.17;100305.92;1735793;80;20989;-74
2021/06/18 04:22:13;;;;;;;7.65;1.70;;;;;;;19.88;63.53;100311.42;1737834;80;21139;-75
2021/06/18 04:24:41;;;;;;;6.37;1.80;;;;;;;19.91;63.46;100308.83;1724181;80;21303;-74
2021/06/18 04:27:09;;;;;;;10.32;1.98;;;;;;;19.93;63.44;100305.77;1731962;80;21214;-74
2021/06/18 04:29:39;;;;;;;5.97;1.60;;;;;;;19.93;63.30;100308.54;1726560;80;21499;-73
2021/06/18 04:32:07;;;;;;;6.75;1.85;;;;;;;19.93;63.11;100308.54;1729634;82;21655;-78
2021/06/18 04:34:35;;;;;;;6.85;1.90;;;;;;;19.93;63.04;100311.31;1727996;80;21568;-79
2021/06/18 04:37:03;;;;;;;8.33;2.77;;;;;;;19.93;62.99;100311.31;1727618;80;21149;-80
2021/06/18 04:39:31;;;;;;;6.90;3.00;;;;;;;19.94;63.47;100310.17;1762769;80;21302;-76
2021/06/18 04:42:01;;;;;;;5.10;1.80;;;;;;;19.94;63.71;100313.77;1740959;82;21109;-76
2021/06/18 04:44:29;;;;;;;8.10;1.75;;;;;;;19.96;64.17;100317.66;1749994;80;21145;-78
2021/06/18 04:46:57;;;;;;;6.55;1.70;;;;;;;19.98;63.97;100313.99;1731221;80;21213;-76
2021/06/18 04:49:25;;;;;;;7.03;1.75;;;;;;;19.96;64.12;100317.06;1748830;82;21034;-79
2021/06/18 04:51:53;;;;;;;6.23;1.73;;;;;;;19.95;63.50;100314.61;1739998;80;21232;-75
2021/06/18 04:54:22;;;;;;;8.63;1.82;;;;;;;19.96;63.59;100315.67;1743977;82;21041;-80
2021/06/18 04:56:49;;;;;;;7.08;2.10;;;;;;;19.98;63.63;100318.16;1680368;83;21082;-80
2021/06/18 04:59:19;;;;;;;8.60;2.00;;;;;;;20.00;64.14;100319.50;1746601;82;21401;-80
2021/06/18 05:01:47;;;;;;;7.42;1.82;;;;;;;20.00;63.90;100322.83;1745667;80;21548;-74
2021/06/18 05:04:15;;;;;;;8.60;1.60;;;;;;;20.01;64.04;100324.50;1740165;82;21024;-79
2021/06/18 05:06:43;;;;;;;;;;;;;;;20.03;64.08;100330.56;1733121;80;21139;-81
2021/06/18 05:09:11;;;;;;;7.75;1.90;;;;;;;20.05;63.61;100324.13;1727883;82;20187;-78
2021/06/18 05:11:39;;;;;;;6.05;1.70;;;;;;;20.05;63.38;100330.50;1743419;80;21076;-74
2021/06/18 05:14:07;;;;;;;6.95;1.65;;;;;;;20.09;63.61;100330.69;1697185;84;21234;-75
2021/06/18 05:16:38;;;;;;;6.12;1.82;;;;;;;20.13;63.47;100319.23;1715527;81;21098;-74
2021/06/18 05:19:06;;;;;;;7.03;2.08;;;;;;;20.16;63.09;100324.17;1726261;83;21166;-75
2021/06/18 05:21:34;;;;;;;5.42;1.90;;;;;;;20.20;63.50;100322.41;1743963;80;21045;-81
2021/06/18 05:24:02;;;;;;;5.17;1.70;;;;;;;20.27;63.49;100327.01;1726300;82;21260;-79
2021/06/18 05:26:31;;;;;;;6.42;2.08;;;;;;;20.32;63.53;100331.06;1743413;82;21069;-75
2021/06/18 05:28:59;;;;;;;5.05;1.92;;;;;;;20.38;63.74;100336.78;1735691;80;21017;-80
2021/06/18 05:31:28;;;;;;;5.40;1.75;;;;;;;20.39;63.36;100334.24;1731654;82;21076;-75
2021/06/18 05:33:58;;;;;;;13.20;2.30;;;;;;;20.43;63.90;100341.41;1721082;81;21024;-76
2021/06/18 05:36:27;;;;;;;10.48;2.20;;;;;;;20.46;63.79;100336.62;1715605;83;21747;-75
2021/06/18 05:38:55;;;;;;;8.90;2.00;;;;;;;20.50;63.68;100343.19;1717854;81;21611;-81
2021/06/18 05:41:23;;;;;;;9.03;1.90;;;;;;;20.50;63.28;100338.45;1708277;81;21079;-78
2021/06/18 05:43:51;;;;;;;5.03;1.80;;;;;;;20.49;63.44;100352.09;1709948;81;21233;-72
2021/06/18 05:46:19;;;;;;;7.67;2.02;;;;;;;20.51;63.66;100361.53;1716336;83;21468;-80
2021/06/18 05:48:47;;;;;;;7.75;2.12;;;;;;;20.49;63.86;100367.38;1707626;81;21131;-73
2021/06/18 05:51:15;;;;;;;7.53;2.10;;;;;;;20.49;63.92;100374.34;1713347;81;21056;-74
2021/06/18 05:53:43;;;;;;;7.10;1.90;;;;;;;20.50;63.89;100367.66;1721669;81;21669;-73
2021/06/18 05:56:10;;;;;;;6.58;1.77;;;;;;;20.54;63.79;100372.03;1734003;82;21084;-80
2021/06/18 05:58:40;;;;;;;9.93;1.65;;;;;;;20.58;64.28;100385.00;1730059;80;21062;-79
2021/06/18 06:01:08;;;;;;;6.75;2.17;;;;;;;20.62;63.96;100383.23;1737164;80;21454;-73
2021/06/18 06:03:37;;;;;;;9.13;2.20;;;;;;;20.68;64.06;100394.52;1752385;82;21517;-74
2021/06/18 06:06:06;;;;;;;7.62;2.00;;;;;;;20.73;63.96;100383.27;1730132;80;21462;-78
2021/06/18 06:08:34;;;;;;;12.20;2.02;;;;;;;20.77;63.86;100396.80;1732374;80;21194;-77
2021/06/18 06:11:04;;;;;;;5.78;1.85;;;;;;;20.83;63.36;100398.34;1702563;81;21056;-78
2021/06/18 06:13:32;;;;;;;6.62;1.70;;;;;;;20.87;63.50;100401.33;1735629;82;21113;-79
2021/06/18 06:16:01;;;;;;;9.30;1.98;;;;;;;20.90;63.48;100407.08;1747434;80;21098;-73
2021/06/18 06:18:30;;;;;;;5.25;1.60;;;;;;;20.95;63.66;100405.33;1730518;82;21688;-80
2021/06/18 06:20:58;;;;;;;4.50;1.92;;;;;;;21.00;63.39;100406.61;1740966;80;21035;-82
2021/06/18 06:23:25;;;;;;;10.03;2.27;;;;;;;21.02;63.26;100402.38;1728272;82;21163;-73
2021/06/18 06:25:54;;;;;;;5.85;1.92;;;;;;;21.03;63.46;100402.61;1738104;80;21047;-75
2021/06/18 06:28:21;;;;;;;5.92;1.90;;;;;;;21.05;62.91;100400.92;1755185;82;21219;-77
2021/06/18 06:30:49;;;;;;;6.07;1.97;;;;;;;21.13;62.77;100397.39;1751325;80;21449;-75
2021/06/18 06:33:17;;;;;;;8.55;2.00;;;;;;;21.13;62.77;100397.39;1725161;82;21559;-79
2021/06/18 06:35:45;;;;;;;9.20;2.20;;;;;;;21.19;62.81;100410.06;1729145;80;21342;-80
2021/06/18 06:38:12;;;;;;;12.95;2.47;;;;;;;21.25;62.87;100411.60;1728524;80;21148;-74
2021/06/18 06:40:41;;;;;;;9.80;2.15;;;;;;;21.33;62.91;100417.78;1754948;82;21155;-76
2021/06/18 06:43:08;;;;;;;8.65;2.00;;;;;;;21.39;62.77;100411.78;1742387;80;21150;-75
2021/06/18 06:45:37;;;;;;;6.97;2.70;;;;;;;21.47;62.91;100417.17;1678795;84;21060;-75
2021/06/18 06:48:06;;;;;;;10.80;2.27;;;;;;;21.54;62.63;100418.93;1740232;80;21112;-79
2021/06/18 06:50:36;;;;;;;5.33;2.15;;;;;;;21.58;61.91;100421.92;1746923;80;21033;-72
2021/06/18 06:53:06;;;;;;;10.28;2.12;;;;;;;21.62;61.94;100419.56;1731823;80;21469;-73
2021/06/18 06:55:35;;;;;;;9.43;2.20;;;;;;;21.66;61.98;100421.13;1704339;83;21028;-74
2021/06/18 06:58:04;;;;;;;6.60;2.00;;;;;;;21.66;61.69;100423.91;1751182;80;21124;-72
2021/06/18 07:00:35;;;;;;;13.45;2.40;;;;;;;21.66;61.73;100423.34;1745512;81;21510;-73
2021/06/18 07:03:03;;;;;;;7.37;2.00;;;;;;;21.68;61.93;100419.67;1741307;80;21615;-74
2021/06/18 07:05:31;;;;;;;;;;;;;;;21.77;62.51;100421.95;1725701;82;21536;-74
2021/06/18 07:07:59;;;;;;;5.97;1.87;;;;;;;21.89;61.75;100430.58;1752893;80;20207;-74
2021/06/18 07:10:27;;;;;;;7.33;1.80;;;;;;;21.99;61.56;100424.73;1729596;82;21574;-74
2021/06/18 07:12:56;;;;;;;12.50;1.90;;;;;;;22.09;61.27;100430.02;1697815;83;21531;-76
2021/06/18 07:15:24;;;;;;;8.38;2.33;;;;;;;22.18;61.16;100425.06;1725407;82;21057;-76
2021/06/18 07:17:52;;;;;;;;;;;;;;;22.25;60.16;100422.63;1727524;82;21202;-74
2021/06/18 07:20:20;;;;;;;7.95;1.75;;;;;;;22.24;60.27;100418.22;1708247;82;20237;-74
2021/06/18 07:22:48;;;;;;;10.72;2.30;;;;;;;22.21;58.80;100420.25;1738112;82;21109;-74
2021/06/18 07:25:16;;;;;;;7.85;2.35;;;;;;;22.16;58.96;100421.22;1738413;80;21091;-75
2021/06/18 07:27:44;;;;;;;9.55;2.20;;;;;;;22.14;59.19;100417.91;1735962;81;21092;-74
2021/06/18 07:30:14;;;;;;;8.65;2.42;;;;;;;22.10;59.84;100409.95;1750966;80;21073;-76
2021/06/18 07:32:43;;;;;;;9.83;2.15;;;;;;;22.07;60.00;100412.80;1733519;80;21105;-76
2021/06/18 07:35:11;;;;;;;7.40;2.20;;;;;;;22.19;60.33;100414.97;1724283;80;21138;-77
2021/06/18 07:37:43;;;;;;;8.30;2.50;;;;;;;22.19;60.33;100414.97;1724562;82;21085;-78
2021/06/18 07:40:14;;;;;;;5.78;2.17;;;;;;;22.32;60.86;100413.22;1746805;80;21006;-78
2021/06/18 07:42:43;;;;;;;8.53;1.85;;;;;;;22.47;61.25;100413.61;1744011;80;21704;-75
2021/06/18 07:45:12;;;;;;;12.23;2.52;;;;;;;22.62;60.08;100419.33;1738255;80;21043;-79
2021/06/18 07:47:40;;;;;;;8.35;1.98;;;;;;;22.74;59.58;100420.34;1724953;82;21365;-78
2021/06/18 07:50:16;;;;;;;10.68;2.30;;;;;;;22.84;59.53;100423.42;1711638;81;21586;-77
2021/06/18 07:52:44;;;;;;;6.05;2.00;;;;;;;22.98;59.21;100416.28;1728272;83;21147;-74
2021/06/18 07:55:23;;;;;;;10.75;2.50;;;;;;;23.11;60.47;100413.91;1745840;80;21064;-79
2021/06/18 07:57:48;;;;;;;6.03;1.62;;;;;;;23.24;59.96;100419.35;1725459;82;21184;-74
2021/06/18 08:00:17;;;;;;;8.05;2.00;;;;;;;23.35;58.42;100410.07;1728288;82;21064;-76
2021/06/18 08:02:45;;;;;;;7.80;1.82;;;;;;;23.45;58.77;100417.31;1697515;83;21560;-79
2021/06/18 08:05:14;;;;;;;6.25;1.80;;;;;;;23.54;57.85;100411.13;1753947;82;21120;-79
2021/06/18 08:07:44;;;;;;;5.92;2.10;;;;;;;23.62;58.03;100417.29;1726096;80;21242;-75
2021/06/18 08:10:13;;;;;;;9.83;2.05;;;;;;;23.69;58.23;100417.59;1719819;82;21053;-74
2021/06/18 08:12:44;;;;;;;5.53;1.95;;;;;;;23.77;57.57;100411.17;1729115;80;21164;-79
2021/06/18 08:15:12;;;;;;;8.63;2.08;;;;;;;23.84;57.20;100397.50;1725142;82;21073;-77
2021/06/18 08:17:41;;;;;;;8.75;1.90;;;;;;;23.84;57.03;100395.53;1739420;80;21398;-79
2021/06/18 08:20:11;;;;;;;7.62;1.80;;;;;;;23.86;55.78;100396.02;1732863;82;21033;-80
2021/06/18 08:22:40;;;;;;;6.55;1.80;;;;;;;23.92;55.49;100401.69;1736415;80;21125;-80
2021/06/18 08:25:08;;;;;;;7.45;1.92;;;;;;;23.99;55.36;100403.95;1751552;82;21037;-75
2021/06/18 08:27:36;;;;;;;5.97;2.02;;;;;;;24.08;56.18;100410.39;1737843;80;21165;-76
2021/06/18 08:30:06;;;;;;;9.95;1.80;;;;;;;24.15;54.06;100396.70;1729750;82;21093;-76
2021/06/18 08:32:35;;;;;;;8.85;1.92;;;;;;;24.24;54.21;100395.23;1731551;80;21233;-75
2021/06/18 08:35:04;;;;;;;;;;;;;;;24.35;54.03;100406.31;1723353;82;21426;-76
2021/06/18 08:37:31;;;;;;;;;;;;;;;24.42;52.69;100392.61;1700428;83;20215;-80
2021/06/18 08:39:59;;;;;;;4.50;1.60;;;;;;;24.48;51.50;100399.66;1737115;80;20181;-77
2021/06/18 08:42:28;;;;;;;6.95;1.80;;;;;;;24.54;50.53;100397.72;1724799;82;21157;-79
2021/06/18 08:44:56;;;;;;;6.53;1.50;;;;;;;24.61;50.67;100398.03;1728883;80;21041;-78
2021/06/18 08:47:24;;;;;;;6.35;1.50;;;;;;;24.70;49.61;100394.34;1723838;82;21565;-77
2021/06/18 08:49:52;;;;;;;5.72;1.80;;;;;;;24.76;48.85;100391.02;1752251;80;21152;-79
2021/06/18 08:52:20;;;;;;;7.95;1.80;;;;;;;24.84;49.38;100394.95;1729476;81;21223;-76
2021/06/18 08:54:48;;;;;;;8.05;1.60;;;;;;;24.91;48.83;100395.22;1753497;80;21457;-78
2021/06/18 08:57:20;;;;;;;6.85;1.70;;;;;;;24.95;47.12;100394.19;1733776;81;21117;-78
2021/06/18 08:59:48;;;;;;;6.12;1.62;;;;;;;24.99;47.69;100390.97;1740244;80;21489;-75
2021/06/18 09:02:16;;;;;;;8.48;1.75;;;;;;;25.03;47.53;100384.09;1729185;82;21635;-74
2021/06/18 09:05:12;;;;;;;5.78;1.40;;;;;;;25.07;47.14;100391.45;1737833;80;21007;-75
2021/06/18 09:08:03;;;;;;;5.53;1.52;;;;;;;25.15;46.97;100386.94;1712622;82;21163;-74
2021/06/18 09:10:37;;;;;;;3.47;1.30;;;;;;;25.21;47.86;100376.61;1725581;80;21081;-75
2021/06/18 09:13:21;;;;;;;8.15;1.80;;;;;;;25.30;46.89;100376.51;1725289;82;21119;-84
2021/06/18 09:15:56;;;;;;;9.10;1.72;;;;;;;25.34;46.52;100382.26;1726079;80;21026;-80
2021/06/18 09:18:38;;;;;;;8.60;2.05;;;;;;;25.41;47.03;100376.33;1744211;82;21192;-79
2021/06/18 09:21:24;;;;;;;11.50;1.72;;;;;;;25.49;46.11;100372.66;1751871;80;21033;-79
2021/06/18 09:23:55;;;;;;;7.45;1.70;;;;;;;25.56;45.39;100374.89;1731884;80;21138;-73
2021/06/18 09:26:31;;;;;;;7.35;1.62;;;;;;;25.59;45.47;100368.03;1739858;80;21080;-79
2021/06/18 09:29:10;;;;;;;9.63;1.95;;;;;;;25.62;46.19;100375.75;1732398;80;21297;-82
2021/06/18 09:31:43;;;;;;;9.03;1.52;;;;;;;25.66;45.35;100372.48;1736978;80;21047;-82
2021/06/18 09:34:12;;;;;;;8.50;1.95;;;;;;;25.68;43.36;100378.55;1720332;82;21854;-81
2021/06/18 09:36:40;;;;;;;7.22;1.30;;;;;;;25.68;43.41;100383.34;1726995;80;21517;-81
2021/06/18 09:39:13;;;;;;;3.85;1.17;;;;;;;25.71;44.04;100377.86;1737953;82;21045;-81
2021/06/18 09:41:47;;;;;;;6.20;1.55;;;;;;;25.77;42.75;100381.27;1733746;80;21041;-81
2021/06/18 09:44:20;;;;;;;3.65;1.32;;;;;;;25.81;43.99;100368.19;1755245;82;21065;-82
2021/06/18 09:46:57;;;;;;;7.03;1.40;;;;;;;25.88;44.08;100375.47;1748069;80;21414;-75
2021/06/18 09:49:37;;;;;;;9.78;1.60;;;;;;;25.94;43.62;100376.04;1746709;80;21073;-76
2021/06/18 09:52:13;;;;;;;11.70;1.60;;;;;;;25.97;44.21;100381.78;1747300;80;21547;-80
2021/06/18 09:54:43;;;;;;;7.95;1.80;;;;;;;25.92;42.89;100373.59;1710202;82;21061;-76
2021/06/18 09:57:14;;;;;;;6.10;1.60;;;;;;;25.92;43.60;100369.96;1715861;80;21142;-79
2021/06/18 10:00:04;;;;;;;6.83;1.85;;;;;;;25.96;44.21;100366.72;1750664;80;21107;-74
2021/06/18 10:02:48;;;;;;;5.25;1.77;;;;;;;25.99;44.67;100369.63;1754443;80;21097;-75
2021/06/18 10:05:21;;;;;;;6.92;1.45;;;;;;;26.03;43.46;100372.56;1747489;80;21148;-78
2021/06/18 10:07:53;;;;;;;8.45;1.70;;;;;;;26.07;44.19;100366.48;1708295;83;21135;-80
2021/06/18 10:10:32;;;;;;;8.28;1.62;;;;;;;26.11;43.47;100363.23;1697965;83;21084;-81
2021/06/18 10:13:02;;;;;;;4.10;1.55;;;;;;;26.12;43.21;100365.70;1749293;80;23077;-79
2021/06/18 10:15:30;;;;;;;;;;;;;;;26.13;43.89;100363.14;1727896;82;21603;-81
2021/06/18 10:17:58;;;;;;;5.03;1.27;;;;;;;26.15;43.44;100366.99;1725017;80;20175;-79
2021/06/18 10:20:29;;;;;;;10.82;1.85;;;;;;;26.17;44.37;100363.24;1734527;82;21123;-81
2021/06/18 10:23:13;;;;;;;6.65;1.57;;;;;;;26.19;43.48;100363.13;1741719;82;21176;-80
2021/06/18 10:25:56;;;;;;;6.65;1.77;;;;;;;26.20;44.67;100360.57;1740985;80;21116;-81
2021/06/18 10:28:29;;;;;;;6.50;1.50;;;;;;;26.23;44.32;100350.63;1742252;80;21525;-76
2021/06/18 10:31:00;;;;;;;4.55;1.40;;;;;;;26.23;43.81;100354.27;1733863;80;21583;-74
2021/06/18 10:33:32;;;;;;;9.30;2.62;;;;;;;26.25;43.03;100349.69;1740881;82;21167;-75
2021/06/18 10:36:10;;;;;;;5.53;2.00;;;;;;;26.27;44.21;100350.98;1745005;80;21049;-74
2021/06/18 10:38:41;;;;;;;6.72;1.82;;;;;;;26.34;44.88;100347.57;1742577;81;22000;-76
2021/06/18 10:41:21;;;;;;;9.13;1.67;;;;;;;26.40;45.16;100351.21;1736628;80;21624;-76
2021/06/18 10:43:58;;;;;;;5.87;1.42;;;;;;;26.45;44.70;100352.95;1750958;82;21093;-75
2021/06/18 10:46:33;;;;;;;9.28;1.87;;;;;;;26.44;46.15;100350.73;1738734;80;21041;-76
2021/06/18 10:49:13;;;;;;;7.87;1.72;;;;;;;26.45;46.22;100359.97;1738662;80;21488;-75
2021/06/18 10:51:44;;;;;;;8.23;1.52;;;;;;;26.41;45.30;100349.23;1735800;80;21133;-74
2021/06/18 10:54:29;;;;;;;7.33;1.72;;;;;;;26.38;45.21;100355.54;1744566;80;21073;-78
2021/06/18 10:57:04;;;;;;;3.83;1.77;;;;;;;26.37;47.67;100354.72;1751364;80;21596;-75
2021/06/18 10:59:53;;;;;;;6.12;1.55;;;;;;;26.42;46.09;100355.87;1737305;80;21096;-80
2021/06/18 11:02:27;;;;;;;10.82;1.62;;;;;;;26.49;45.44;100352.47;1734710;80;21086;-82
2021/06/18 11:04:56;;;;;;;8.35;1.82;;;;;;;26.57;45.90;100357.73;1742917;80;21088;-80
2021/06/18 11:07:38;;;;;;;5.60;1.40;;;;;;;26.61;44.65;100351.66;1743601;80;21504;-82
2021/06/18 11:10:13;;;;;;;10.72;1.92;;;;;;;26.61;43.73;100355.87;1713652;82;21039;-81
2021/06/18 11:12:48;;;;;;;8.23;1.80;;;;;;;26.60;42.95;100364.88;1776764;80;21432;-81
2021/06/18 11:15:25;;;;;;;7.03;1.52;;;;;;;26.56;44.34;100362.55;1715508;83;21030;-84
2021/06/18 11:18:11;;;;;;;11.40;1.75;;;;;;;26.59;43.85;100356.81;1748166;80;21121;-82
2021/06/18 11:20:39;;;;;;;6.40;1.50;;;;;;;26.61;44.36;100353.88;1725000;82;21399;-80
2021/06/18 11:23:21;;;;;;;3.98;1.47;;;;;;;26.72;43.55;100365.42;1724427;80;21381;-75
2021/06/18 11:25:57;;;;;;;6.22;1.50;;;;;;;26.72;43.37;100360.63;1724697;82;21587;-80
2021/06/18 11:28:34;;;;;;;8.98;1.42;;;;;;;26.71;43.26;100360.42;1736946;80;21093;-81
2021/06/18 11:31:22;;;;;;;3.52;1.17;;;;;;;26.73;42.31;100363.69;1739838;82;21048;-79
2021/06/18 11:33:58;;;;;;;6.25;1.50;;;;;;;26.70;43.01;100348.95;1729289;80;21116;-78
2021/06/18 11:36:41;;;;;;;11.55;1.77;;;;;;;26.73;42.73;100365.09;1725436;82;21086;-77
2021/06/18 11:39:15;;;;;;;15.43;1.85;;;;;;;26.78;41.81;100362.08;1741674;80;21097;-82
2021/06/18 11:41:48;;;;;;;9.98;1.72;;;;;;;26.82;40.97;100364.39;1734267;80;21550;-78
2021/06/18 11:44:20;;;;;;;9.85;1.77;;;;;;;26.83;41.29;100363.23;1729663;80;21439;-81